APG550 RPVM-RPVE
Flight info
| Callsign | APG550 |
|---|---|
| Flight time | 0h 21m |
| Altitude | 24000 |
| Route | PARAO4P PARAO W6A ROX TR15 KLO KLO7A |
| Aircraft | A319/M-SDE3FGHIRWY/LB1 |
Departure
| Time | 2026-04-20 06:08 |
|---|---|
| Airport | Mactan Cebu International Airport (RPVM) |
Arrival
| Time | 2026-04-20 06:29 |
|---|---|
| Airport | Godofredo P. Ramos Airport (RPVE) |
| Time | Latitude | Longitude | Altitude | Speed | Heading |
|---|---|---|---|---|---|
| 2026-04-20 05:43 | 10.31555 | 123.97971 | 36 ft | 0 kts | 314° |
| 2026-04-20 05:57 | 10.31553 | 123.97974 | 37 ft | 2 kts | 314° |
| 2026-04-20 05:57 | 10.31543 | 123.97984 | 37 ft | 2 kts | 314° |
| 2026-04-20 05:58 | 10.31532 | 123.97995 | 37 ft | 2 kts | 314° |
| 2026-04-20 05:58 | 10.31522 | 123.98006 | 36 ft | 2 kts | 314° |
| 2026-04-20 05:58 | 10.31511 | 123.98018 | 36 ft | 2 kts | 314° |
| 2026-04-20 05:58 | 10.31500 | 123.98026 | 36 ft | 2 kts | 349° |
| 2026-04-20 05:59 | 10.31486 | 123.98025 | 36 ft | 1 kts | 37° |
| 2026-04-20 05:59 | 10.31482 | 123.98020 | 36 ft | 1 kts | 51° |
| 2026-04-20 05:59 | 10.31480 | 123.98017 | 37 ft | 0 kts | 46° |
| 2026-04-20 06:01 | 10.31484 | 123.98022 | 36 ft | 2 kts | 47° |
| 2026-04-20 06:01 | 10.31498 | 123.98037 | 36 ft | 4 kts | 46° |
| 2026-04-20 06:02 | 10.31529 | 123.98068 | 36 ft | 7 kts | 44° |
| 2026-04-20 06:02 | 10.31561 | 123.98109 | 36 ft | 7 kts | 70° |
| 2026-04-20 06:02 | 10.31552 | 123.98158 | 36 ft | 7 kts | 124° |
| 2026-04-20 06:02 | 10.31517 | 123.98195 | 36 ft | 7 kts | 140° |
| 2026-04-20 06:03 | 10.31476 | 123.98224 | 36 ft | 6 kts | 158° |
| 2026-04-20 06:03 | 10.31426 | 123.98209 | 36 ft | 8 kts | 224° |
| 2026-04-20 06:03 | 10.31383 | 123.98164 | 36 ft | 9 kts | 225° |
| 2026-04-20 06:03 | 10.31336 | 123.98119 | 36 ft | 9 kts | 222° |
| 2026-04-20 06:04 | 10.31290 | 123.98072 | 36 ft | 10 kts | 229° |
| 2026-04-20 06:04 | 10.31232 | 123.98011 | 36 ft | 12 kts | 222° |
| 2026-04-20 06:04 | 10.31169 | 123.97947 | 36 ft | 13 kts | 227° |
| 2026-04-20 06:04 | 10.31100 | 123.97881 | 36 ft | 13 kts | 218° |
| 2026-04-20 06:05 | 10.31025 | 123.97813 | 36 ft | 14 kts | 224° |
| 2026-04-20 06:05 | 10.30952 | 123.97734 | 36 ft | 15 kts | 226° |
| 2026-04-20 06:05 | 10.30872 | 123.97652 | 36 ft | 16 kts | 225° |
| 2026-04-20 06:05 | 10.30787 | 123.97565 | 36 ft | 16 kts | 224° |
| 2026-04-20 06:06 | 10.30741 | 123.97519 | 36 ft | 9 kts | 224° |
| 2026-04-20 06:06 | 10.30690 | 123.97469 | 36 ft | 11 kts | 224° |
| 2026-04-20 06:06 | 10.30632 | 123.97409 | 36 ft | 12 kts | 225° |
| 2026-04-20 06:06 | 10.30584 | 123.97366 | 36 ft | 8 kts | 200° |
| 2026-04-20 06:07 | 10.30536 | 123.97387 | 36 ft | 8 kts | 132° |
| 2026-04-20 06:07 | 10.30513 | 123.97423 | 36 ft | 5 kts | 91° |
| 2026-04-20 06:07 | 10.30519 | 123.97436 | 36 ft | 0 kts | 46° |
| 2026-04-20 06:07 | 10.30586 | 123.97504 | 36 ft | 46 kts | 44° |
| 2026-04-20 06:08 | 10.30997 | 123.97915 | 36 ft | 116 kts | 44° |
| 2026-04-20 06:08 | 10.31689 | 123.98614 | 223 ft | 152 kts | 43° |
| 2026-04-20 06:08 | 10.32417 | 123.99342 | 938 ft | 144 kts | 43° |
| 2026-04-20 06:08 | 10.33127 | 124.00040 | 1570 ft | 145 kts | 45° |
| 2026-04-20 06:09 | 10.33840 | 124.00768 | 2033 ft | 149 kts | 45° |
| 2026-04-20 06:09 | 10.34605 | 124.01553 | 2321 ft | 166 kts | 45° |
| 2026-04-20 06:09 | 10.35624 | 124.02218 | 2620 ft | 184 kts | 11° |
| 2026-04-20 06:09 | 10.36929 | 124.01934 | 2886 ft | 210 kts | 329° |
| 2026-04-20 06:10 | 10.38181 | 124.00984 | 3311 ft | 230 kts | 326° |
| 2026-04-20 06:10 | 10.39521 | 124.00001 | 3783 ft | 248 kts | 327° |
| 2026-04-20 06:10 | 10.40986 | 123.98968 | 4315 ft | 264 kts | 327° |
| 2026-04-20 06:10 | 10.42516 | 123.97908 | 5085 ft | 270 kts | 328° |
| 2026-04-20 06:11 | 10.44075 | 123.96835 | 5980 ft | 273 kts | 328° |
| 2026-04-20 06:11 | 10.45653 | 123.95753 | 6864 ft | 276 kts | 328° |
| 2026-04-20 06:11 | 10.47250 | 123.94662 | 7741 ft | 280 kts | 327° |
| 2026-04-20 06:11 | 10.48872 | 123.93556 | 8608 ft | 285 kts | 327° |
| 2026-04-20 06:12 | 10.50523 | 123.92429 | 9478 ft | 290 kts | 327° |
| 2026-04-20 06:12 | 10.52194 | 123.91288 | 10298 ft | 294 kts | 326° |
| 2026-04-20 06:12 | 10.53895 | 123.90126 | 11081 ft | 300 kts | 326° |
| 2026-04-20 06:12 | 10.55654 | 123.88925 | 11860 ft | 305 kts | 325° |
| 2026-04-20 06:13 | 10.57415 | 123.87709 | 12494 ft | 314 kts | 323° |
| 2026-04-20 06:13 | 10.59143 | 123.86234 | 12869 ft | 331 kts | 314° |
| 2026-04-20 06:13 | 10.60679 | 123.84444 | 13202 ft | 348 kts | 306° |
| 2026-04-20 06:13 | 10.62160 | 123.82417 | 13501 ft | 365 kts | 305° |
| 2026-04-20 06:14 | 10.63690 | 123.80264 | 13776 ft | 382 kts | 305° |
| 2026-04-20 06:14 | 10.65300 | 123.78067 | 14028 ft | 397 kts | 306° |
| 2026-04-20 06:14 | 10.66995 | 123.75796 | 14259 ft | 411 kts | 306° |
| 2026-04-20 06:14 | 10.68748 | 123.73450 | 14471 ft | 424 kts | 307° |
| 2026-04-20 06:15 | 10.80781 | 123.57270 | 16452 ft | 434 kts | 307° |
| 2026-04-20 06:15 | 11.10068 | 123.17651 | 19516 ft | 442 kts | 307° |
| 2026-04-20 06:15 | 11.39917 | 122.77091 | 21877 ft | 451 kts | 306° |
| 2026-04-20 06:15 | 11.46984 | 122.67485 | 22649 ft | 456 kts | 306° |
| 2026-04-20 06:16 | 11.48882 | 122.64906 | 23234 ft | 447 kts | 306° |
| 2026-04-20 06:16 | 11.50689 | 122.62447 | 23711 ft | 420 kts | 306° |
| 2026-04-20 06:16 | 11.52409 | 122.60101 | 23563 ft | 405 kts | 306° |
| 2026-04-20 06:16 | 11.54069 | 122.57834 | 23353 ft | 393 kts | 306° |
| 2026-04-20 06:17 | 11.55682 | 122.55634 | 23154 ft | 381 kts | 306° |
| 2026-04-20 06:17 | 11.57236 | 122.53514 | 22967 ft | 370 kts | 306° |
| 2026-04-20 06:17 | 11.58769 | 122.51424 | 22731 ft | 362 kts | 306° |
| 2026-04-20 06:17 | 11.60244 | 122.49412 | 22373 ft | 358 kts | 306° |
| 2026-04-20 06:18 | 11.61748 | 122.47360 | 21956 ft | 356 kts | 306° |
| 2026-04-20 06:18 | 11.63221 | 122.45349 | 21530 ft | 354 kts | 306° |
| 2026-04-20 06:18 | 11.64661 | 122.43381 | 20898 ft | 349 kts | 307° |
| 2026-04-20 06:18 | 11.66112 | 122.41399 | 19817 ft | 356 kts | 307° |
| 2026-04-20 06:19 | 11.67606 | 122.39358 | 18609 ft | 363 kts | 307° |
| 2026-04-20 06:19 | 11.69138 | 122.37296 | 17328 ft | 370 kts | 308° |
| 2026-04-20 06:19 | 11.70735 | 122.35259 | 16477 ft | 361 kts | 309° |
| 2026-04-20 06:19 | 11.72271 | 122.33322 | 16207 ft | 336 kts | 309° |
| 2026-04-20 06:20 | 11.73717 | 122.31497 | 15997 ft | 328 kts | 309° |
| 2026-04-20 06:20 | 11.75864 | 122.28780 | 15617 ft | 328 kts | 309° |
| 2026-04-20 06:20 | 11.92728 | 122.07275 | 12583 ft | 322 kts | 310° |
| 2026-04-20 06:20 | 11.99652 | 121.98450 | 10091 ft | 317 kts | 310° |
| 2026-04-20 06:21 | 12.00987 | 121.96744 | 9610 ft | 303 kts | 311° |
| 2026-04-20 06:21 | 12.02294 | 121.95075 | 9000 ft | 296 kts | 311° |
| 2026-04-20 06:21 | 12.03388 | 121.93347 | 8417 ft | 290 kts | 290° |
| 2026-04-20 06:21 | 12.03543 | 121.91335 | 7918 ft | 283 kts | 258° |
| 2026-04-20 06:22 | 12.02734 | 121.89535 | 7493 ft | 282 kts | 233° |
| 2026-04-20 06:22 | 12.01565 | 121.87922 | 7122 ft | 282 kts | 232° |
| 2026-04-20 06:22 | 11.93739 | 121.76928 | 5465 ft | 284 kts | 234° |
| 2026-04-20 06:22 | 11.89647 | 121.71080 | 4513 ft | 280 kts | 220° |
| 2026-04-20 06:23 | 11.87940 | 121.70176 | 4068 ft | 277 kts | 189° |
| 2026-04-20 06:23 | 11.86062 | 121.70237 | 3782 ft | 265 kts | 159° |
| 2026-04-20 06:23 | 11.84539 | 121.71136 | 3743 ft | 244 kts | 133° |
| 2026-04-20 06:23 | 11.83633 | 121.72498 | 3741 ft | 224 kts | 108° |
| 2026-04-20 06:24 | 11.83343 | 121.74004 | 3741 ft | 206 kts | 91° |
| 2026-04-20 06:24 | 11.83523 | 121.75398 | 3741 ft | 199 kts | 71° |
| 2026-04-20 06:24 | 11.84019 | 121.76691 | 3789 ft | 187 kts | 67° |
| 2026-04-20 06:24 | 11.84501 | 121.77881 | 3756 ft | 178 kts | 71° |
| 2026-04-20 06:25 | 11.84652 | 121.79123 | 3754 ft | 178 kts | 84° |
| 2026-04-20 06:25 | 11.84961 | 121.80309 | 3762 ft | 168 kts | 64° |
| 2026-04-20 06:25 | 11.85489 | 121.81329 | 3632 ft | 159 kts | 62° |
| 2026-04-20 06:25 | 11.86021 | 121.82384 | 3032 ft | 180 kts | 64° |
| 2026-04-20 06:26 | 11.86567 | 121.83600 | 2399 ft | 196 kts | 66° |
| 2026-04-20 06:26 | 11.87112 | 121.84856 | 2050 ft | 191 kts | 63° |
| 2026-04-20 06:26 | 11.87697 | 121.86008 | 1866 ft | 169 kts | 62° |
| 2026-04-20 06:26 | 11.88200 | 121.86977 | 1698 ft | 145 kts | 62° |
| 2026-04-20 06:27 | 11.88647 | 121.87847 | 1501 ft | 129 kts | 62° |
| 2026-04-20 06:27 | 11.89048 | 121.88633 | 1345 ft | 123 kts | 62° |
| 2026-04-20 06:27 | 11.89443 | 121.89411 | 1203 ft | 123 kts | 62° |
| 2026-04-20 06:27 | 11.89838 | 121.90186 | 1049 ft | 122 kts | 62° |
| 2026-04-20 06:28 | 11.90225 | 121.90958 | 887 ft | 122 kts | 63° |
| 2026-04-20 06:28 | 11.90600 | 121.91736 | 706 ft | 122 kts | 62° |
| 2026-04-20 06:28 | 11.90994 | 121.92500 | 538 ft | 121 kts | 62° |
| 2026-04-20 06:28 | 11.91375 | 121.93268 | 406 ft | 121 kts | 63° |
| 2026-04-20 06:29 | 11.91765 | 121.94029 | 243 ft | 120 kts | 63° |
| 2026-04-20 06:29 | 11.92143 | 121.94783 | 97 ft | 119 kts | 63° |
| 2026-04-20 06:29 | 11.92505 | 121.95496 | 29 ft | 85 kts | 66° |
| 2026-04-20 06:29 | 11.92658 | 121.95798 | 29 ft | 31 kts | 63° |
| 2026-04-20 06:30 | 11.92736 | 121.95955 | 29 ft | 20 kts | 65° |
| 2026-04-20 06:30 | 11.92792 | 121.96062 | 29 ft | 10 kts | 64° |
| 2026-04-20 06:30 | 11.92796 | 121.96113 | 29 ft | 8 kts | 137° |
| 2026-04-20 06:30 | 11.92741 | 121.96143 | 29 ft | 9 kts | 153° |
| 2026-04-20 06:31 | 11.92696 | 121.96167 | 29 ft | 5 kts | 152° |
| 2026-04-20 06:31 | 11.92657 | 121.96189 | 29 ft | 7 kts | 150° |
| 2026-04-20 06:31 | 11.92645 | 121.96236 | 29 ft | 8 kts | 61° |
| 2026-04-20 06:31 | 11.92665 | 121.96272 | 29 ft | 4 kts | 62° |
| 2026-04-20 06:32 | 11.92681 | 121.96302 | 29 ft | 5 kts | 62° |
| 2026-04-20 06:32 | 11.92702 | 121.96342 | 29 ft | 6 kts | 62° |
| 2026-04-20 06:32 | 11.92718 | 121.96374 | 29 ft | 5 kts | 63° |
| 2026-04-20 06:32 | 11.92735 | 121.96408 | 29 ft | 3 kts | 64° |
| 2026-04-20 06:33 | 11.92742 | 121.96424 | 29 ft | 2 kts | 69° |
| 2026-04-20 06:33 | 11.92738 | 121.96439 | 29 ft | 3 kts | 144° |
| 2026-04-20 06:33 | 11.92711 | 121.96454 | 29 ft | 5 kts | 153° |
| 2026-04-20 06:33 | 11.92694 | 121.96462 | 29 ft | 0 kts | 152° |